createdAt,value
2017-09-13T00:00:12.471Z,14.20
2017-09-13T00:02:40.570Z,14.20
2017-09-13T00:05:09.420Z,14.30
2017-09-13T00:07:37.483Z,14.30
2017-09-13T00:10:05.530Z,14.40
2017-09-13T00:12:33.596Z,14.40
2017-09-13T00:15:01.643Z,14.40
2017-09-13T00:17:30.483Z,14.40
2017-09-13T00:19:58.526Z,14.40
2017-09-13T00:22:26.599Z,14.30
2017-09-13T00:24:54.687Z,14.20
2017-09-13T00:27:22.848Z,14.20
2017-09-13T00:29:50.871Z,14.20
2017-09-13T00:32:18.950Z,14.10
2017-09-13T00:34:47.027Z,14.10
2017-09-13T00:37:15.090Z,14.10
2017-09-13T00:39:43.162Z,14.10
2017-09-13T00:42:11.203Z,14.10
2017-09-13T00:44:39.278Z,14.20
2017-09-13T00:47:07.346Z,14.30
2017-09-13T00:49:35.412Z,14.30
2017-09-13T00:52:03.479Z,14.30
2017-09-13T00:54:31.547Z,14.30
2017-09-13T00:56:59.641Z,14.20
2017-09-13T00:59:27.670Z,14.30
2017-09-13T01:01:56.491Z,14.30
2017-09-13T01:04:24.547Z,14.30
2017-09-13T01:06:52.707Z,14.30
2017-09-13T01:09:20.748Z,14.40
2017-09-13T01:11:48.791Z,14.40
2017-09-13T01:14:16.876Z,14.30
2017-09-13T01:16:44.924Z,14.20
2017-09-13T01:19:13.013Z,14.20
2017-09-13T01:21:41.063Z,14.20
2017-09-13T01:24:09.132Z,14.20
2017-09-13T01:26:37.191Z,14.30
2017-09-13T01:29:05.273Z,14.40
2017-09-13T01:31:34.166Z,14.40
2017-09-13T01:34:02.196Z,14.30
2017-09-13T01:36:30.283Z,14.40
2017-09-13T01:38:58.350Z,14.40
2017-09-13T01:41:26.420Z,14.40
2017-09-13T01:43:54.471Z,14.40
2017-09-13T01:46:22.543Z,14.40
2017-09-13T01:48:50.604Z,14.50
2017-09-13T01:51:18.669Z,14.50
2017-09-13T01:53:46.722Z,14.50
2017-09-13T01:56:15.135Z,14.60
2017-09-13T01:58:43.191Z,14.60
2017-09-13T02:01:11.255Z,14.60
2017-09-13T02:03:39.312Z,14.70
2017-09-13T02:06:07.384Z,14.70
2017-09-13T02:08:35.446Z,14.80
2017-09-13T02:11:04.275Z,14.70
2017-09-13T02:13:32.347Z,14.70
2017-09-13T02:16:00.418Z,14.70
2017-09-13T02:18:28.471Z,14.70
2017-09-13T02:20:56.543Z,14.70
2017-09-13T02:23:24.607Z,14.70
2017-09-13T02:25:52.666Z,14.50
2017-09-13T02:28:20.752Z,14.20
2017-09-13T02:30:48.820Z,13.90
2017-09-13T02:33:17.707Z,13.60
2017-09-13T02:35:46.549Z,13.50
2017-09-13T02:38:14.618Z,13.40
2017-09-13T02:40:42.691Z,13.30
2017-09-13T02:43:10.763Z,13.20
2017-09-13T02:45:38.830Z,13.10
2017-09-13T02:48:06.891Z,13.00
2017-09-13T02:50:34.960Z,12.90
2017-09-13T02:53:03.049Z,12.90
2017-09-13T02:55:31.102Z,12.80
2017-09-13T02:57:59.139Z,12.80
2017-09-13T03:00:27.981Z,12.80
2017-09-13T03:02:56.022Z,12.70
2017-09-13T03:05:24.108Z,12.80
2017-09-13T03:07:52.172Z,12.80
2017-09-13T03:10:20.247Z,12.80
2017-09-13T03:12:48.354Z,12.70
2017-09-13T03:15:16.434Z,12.70
2017-09-13T03:17:44.499Z,12.60
2017-09-13T03:20:12.567Z,12.60
2017-09-13T03:22:40.624Z,12.60
2017-09-13T03:25:08.662Z,12.60
2017-09-13T03:27:36.747Z,12.50
2017-09-13T03:30:04.804Z,12.50
2017-09-13T03:32:32.882Z,12.50
2017-09-13T03:35:00.945Z,12.50
2017-09-13T03:37:29.024Z,12.70
2017-09-13T03:39:57.084Z,12.80
2017-09-13T03:42:25.131Z,12.70
2017-09-13T03:44:53.962Z,12.60
2017-09-13T03:47:22.031Z,12.60
2017-09-13T03:49:50.102Z,12.60
2017-09-13T03:52:18.178Z,12.70
2017-09-13T03:54:46.258Z,12.70
2017-09-13T03:57:14.815Z,12.80
2017-09-13T03:59:42.879Z,12.80
2017-09-13T04:02:10.958Z,12.80
2017-09-13T04:04:39.299Z,12.80
2017-09-13T04:07:07.365Z,12.80
2017-09-13T04:09:35.414Z,12.90
2017-09-13T04:12:03.482Z,12.80
2017-09-13T04:14:31.537Z,12.80
2017-09-13T04:16:59.608Z,12.80
2017-09-13T04:19:27.684Z,12.80
2017-09-13T04:21:55.722Z,12.70
2017-09-13T04:24:23.865Z,12.70
2017-09-13T04:26:52.006Z,12.70
2017-09-13T04:29:20.074Z,12.70
2017-09-13T04:31:48.207Z,12.60
2017-09-13T04:34:16.273Z,12.60
2017-09-13T04:36:44.322Z,12.70
2017-09-13T04:39:12.418Z,12.60
2017-09-13T04:41:40.463Z,12.60
2017-09-13T04:44:08.537Z,12.60
2017-09-13T04:46:36.607Z,12.60
2017-09-13T04:49:04.692Z,12.70
2017-09-13T04:51:33.540Z,12.70
2017-09-13T04:54:01.618Z,12.70
2017-09-13T04:56:29.680Z,12.70
2017-09-13T04:58:58.498Z,12.70
2017-09-13T05:01:26.568Z,12.70
2017-09-13T05:03:54.623Z,12.80
2017-09-13T05:06:22.822Z,12.80
2017-09-13T05:08:50.863Z,12.80
2017-09-13T05:11:18.939Z,12.80
2017-09-13T05:13:47.006Z,12.80
2017-09-13T05:16:15.584Z,12.80
2017-09-13T05:18:43.661Z,12.80
2017-09-13T05:21:11.740Z,12.90
2017-09-13T05:23:39.798Z,12.90
2017-09-13T05:26:08.303Z,12.80
2017-09-13T05:28:36.370Z,12.90
2017-09-13T05:31:04.430Z,12.80
2017-09-13T05:33:32.511Z,12.90
2017-09-13T05:36:00.580Z,12.90
2017-09-13T05:38:28.652Z,13.00
2017-09-13T05:40:56.770Z,13.00
2017-09-13T05:43:24.839Z,13.00
2017-09-13T05:45:52.919Z,13.00
2017-09-13T05:48:21.000Z,13.00
2017-09-13T05:50:49.062Z,13.00
2017-09-13T05:53:17.292Z,13.10
2017-09-13T05:55:45.329Z,13.10
2017-09-13T05:58:14.189Z,13.20
2017-09-13T06:00:42.234Z,13.20
2017-09-13T06:03:10.298Z,13.30
2017-09-13T06:05:38.408Z,13.30
2017-09-13T06:08:07.245Z,13.30
2017-09-13T06:10:35.322Z,13.30
2017-09-13T06:13:03.395Z,13.30
2017-09-13T06:15:31.459Z,13.40
2017-09-13T06:17:59.531Z,13.40
2017-09-13T06:20:27.597Z,13.50
2017-09-13T06:22:55.675Z,13.60
2017-09-13T06:25:23.743Z,13.50
2017-09-13T06:27:51.863Z,13.60
2017-09-13T06:30:19.909Z,13.50
2017-09-13T06:32:48.242Z,13.50
2017-09-13T06:35:17.070Z,13.50
2017-09-13T06:37:45.144Z,13.50
2017-09-13T06:40:13.242Z,13.50
2017-09-13T06:42:41.287Z,13.60
2017-09-13T06:45:09.339Z,13.60
2017-09-13T06:47:37.411Z,13.70
2017-09-13T06:50:05.840Z,13.80
2017-09-13T06:52:33.915Z,13.90
2017-09-13T06:55:01.975Z,13.90
2017-09-13T06:57:30.022Z,13.90
2017-09-13T06:59:58.091Z,13.90
2017-09-13T07:02:26.159Z,14.00
2017-09-13T07:04:54.232Z,14.00
2017-09-13T07:07:22.314Z,14.00
2017-09-13T07:09:50.385Z,14.20
2017-09-13T07:12:18.451Z,14.30
2017-09-13T07:14:46.513Z,14.50
2017-09-13T07:17:14.592Z,14.60
2017-09-13T07:19:42.674Z,14.70
2017-09-13T07:22:11.560Z,14.80
2017-09-13T07:24:39.619Z,14.90
2017-09-13T07:27:07.691Z,15.00
2017-09-13T07:29:35.800Z,15.10
2017-09-13T07:32:03.860Z,15.20
2017-09-13T07:34:31.949Z,15.30
2017-09-13T07:37:00.021Z,15.40
2017-09-13T07:39:28.110Z,15.60
2017-09-13T07:41:56.215Z,15.70
2017-09-13T07:44:25.055Z,16.10
2017-09-13T07:46:53.098Z,16.10
2017-09-13T07:49:21.179Z,16.30
2017-09-13T07:51:49.236Z,16.30
2017-09-13T08:04:03.098Z,16.40
2017-09-13T08:06:31.168Z,16.30
2017-09-13T08:08:59.246Z,16.40
2017-09-13T08:11:27.308Z,16.40
2017-09-13T08:13:55.402Z,16.60
2017-09-13T08:16:23.635Z,16.70
2017-09-13T08:18:51.715Z,16.70
2017-09-13T08:21:19.823Z,16.60
2017-09-13T08:23:48.666Z,16.80
2017-09-13T08:26:16.716Z,16.70
2017-09-13T08:28:44.787Z,17.00
2017-09-13T08:31:12.859Z,17.10
2017-09-13T08:33:40.929Z,17.00
2017-09-13T08:36:08.998Z,16.90
2017-09-13T08:38:37.070Z,16.80
2017-09-13T08:41:05.129Z,17.00
2017-09-13T08:43:33.196Z,17.00
2017-09-13T08:46:01.240Z,17.10
2017-09-13T08:48:29.310Z,17.30
2017-09-13T08:50:57.379Z,17.40
2017-09-13T08:53:25.447Z,17.50
2017-09-13T08:55:53.522Z,17.50
2017-09-13T08:58:21.616Z,17.70
2017-09-13T09:00:49.671Z,17.90
2017-09-13T09:03:17.844Z,18.10
2017-09-13T09:05:45.908Z,18.30
2017-09-13T09:08:13.956Z,18.60
2017-09-13T09:10:42.792Z,19.10
2017-09-13T09:13:10.849Z,19.10
2017-09-13T09:15:38.932Z,19.00
2017-09-13T09:18:06.996Z,18.40
2017-09-13T09:20:35.077Z,18.30
2017-09-13T09:23:03.126Z,18.60
2017-09-13T09:25:31.206Z,18.50
2017-09-13T09:27:59.280Z,18.40
2017-09-13T09:30:27.347Z,18.30
2017-09-13T09:32:55.414Z,18.30
2017-09-13T09:35:24.218Z,18.70
2017-09-13T09:37:53.798Z,19.40
2017-09-13T09:40:21.846Z,19.40
2017-09-13T09:42:49.943Z,20.00
2017-09-13T09:45:17.982Z,21.40
2017-09-13T09:47:46.050Z,23.00
2017-09-13T09:50:14.118Z,23.10
2017-09-13T09:52:42.179Z,23.00
2017-09-13T09:55:10.271Z,23.20
2017-09-13T09:57:38.330Z,22.40
2017-09-13T10:00:06.408Z,22.20
2017-09-13T10:02:34.459Z,23.30
2017-09-13T10:05:02.535Z,24.90
2017-09-13T10:07:30.663Z,24.90
2017-09-13T10:09:58.752Z,24.60
2017-09-13T10:12:26.802Z,24.60
2017-09-13T10:14:54.864Z,23.50
2017-09-13T10:17:22.942Z,23.60
2017-09-13T10:19:51.015Z,24.10
2017-09-13T10:22:19.095Z,24.40
2017-09-13T10:24:47.147Z,24.50
2017-09-13T10:27:15.208Z,25.60
2017-09-13T10:29:43.276Z,27.00
2017-09-13T10:32:11.358Z,27.20
2017-09-13T10:34:39.444Z,24.30
2017-09-13T10:37:07.483Z,23.10
2017-09-13T10:39:35.560Z,22.40
2017-09-13T10:42:03.630Z,23.10
2017-09-13T10:44:31.675Z,23.70
2017-09-13T10:46:59.749Z,24.40
2017-09-13T10:49:27.821Z,25.40
2017-09-13T10:51:55.879Z,23.80
2017-09-13T10:54:23.966Z,22.20
2017-09-13T10:56:52.011Z,21.50
2017-09-13T10:59:20.079Z,22.20
2017-09-13T11:01:48.147Z,21.70
2017-09-13T11:04:16.422Z,21.90
2017-09-13T11:06:44.506Z,22.10
2017-09-13T11:09:13.304Z,23.30
2017-09-13T11:11:41.366Z,23.20
2017-09-13T11:14:09.461Z,23.10
2017-09-13T11:16:37.543Z,24.90
2017-09-13T11:19:05.610Z,26.10
2017-09-13T11:21:33.688Z,26.60
2017-09-13T11:24:01.763Z,25.00
2017-09-13T11:26:29.832Z,23.70
2017-09-13T11:28:57.980Z,23.00
2017-09-13T11:31:26.047Z,22.20
2017-09-13T11:33:54.120Z,21.60
2017-09-13T11:36:22.196Z,21.20
2017-09-13T11:38:51.107Z,20.90
2017-09-13T11:41:19.156Z,20.90
2017-09-13T11:43:47.224Z,21.30
2017-09-13T11:46:15.306Z,21.80
2017-09-13T11:48:43.385Z,23.20
2017-09-13T11:51:11.457Z,23.70
2017-09-13T11:53:39.510Z,22.40
2017-09-13T11:56:07.656Z,21.40
2017-09-13T11:58:35.838Z,20.80
2017-09-13T12:01:03.917Z,20.80
2017-09-13T12:03:31.985Z,20.70
2017-09-13T12:06:00.050Z,20.60
2017-09-13T12:08:28.106Z,20.70
2017-09-13T12:10:56.945Z,20.30
2017-09-13T12:13:25.003Z,20.30
2017-09-13T12:15:53.094Z,19.80
2017-09-13T12:18:21.172Z,19.50
2017-09-13T12:20:49.252Z,19.30
2017-09-13T12:23:17.321Z,19.10
2017-09-13T12:25:45.404Z,19.00
2017-09-13T12:28:13.467Z,19.10
2017-09-13T12:30:41.539Z,19.10
2017-09-13T12:33:10.403Z,19.40
2017-09-13T12:35:38.506Z,19.40
2017-09-13T12:38:06.578Z,19.30
2017-09-13T12:40:34.649Z,19.20
2017-09-13T12:43:02.724Z,19.40
2017-09-13T12:45:30.783Z,19.60
2017-09-13T12:47:58.876Z,19.80
2017-09-13T12:50:26.936Z,20.10
2017-09-13T12:52:55.013Z,20.30
2017-09-13T12:55:23.090Z,20.10
2017-09-13T12:57:51.229Z,19.70
2017-09-13T13:00:19.310Z,19.60
2017-09-13T13:02:47.375Z,19.50
2017-09-13T13:05:15.468Z,19.50
2017-09-13T13:07:43.508Z,19.40
2017-09-13T13:10:11.613Z,19.40
2017-09-13T13:12:39.671Z,19.30
2017-09-13T13:15:07.718Z,19.30
2017-09-13T13:17:35.792Z,19.20
2017-09-13T13:20:03.896Z,19.10
2017-09-13T13:22:32.706Z,19.30
2017-09-13T13:25:01.571Z,19.40
2017-09-13T13:27:29.612Z,19.30
2017-09-13T13:29:57.669Z,19.50
2017-09-13T13:32:25.752Z,19.40
2017-09-13T13:34:57.127Z,19.40
2017-09-13T13:37:25.228Z,19.30
2017-09-13T13:39:58.115Z,19.60
2017-09-13T13:42:26.178Z,19.90
2017-09-13T13:44:54.234Z,20.10
2017-09-13T13:47:22.316Z,20.10
2017-09-13T13:49:50.377Z,20.00
2017-09-13T13:52:18.455Z,19.60
2017-09-13T13:54:46.532Z,19.40
2017-09-13T13:57:14.595Z,19.30
2017-09-13T13:59:42.663Z,19.10
2017-09-13T14:02:10.735Z,18.80
2017-09-13T14:04:38.855Z,18.70
2017-09-13T14:07:06.928Z,18.70
2017-09-13T14:09:35.764Z,18.60
2017-09-13T14:12:03.840Z,18.60
2017-09-13T14:14:31.920Z,18.60
2017-09-13T14:17:00.847Z,18.40
2017-09-13T14:19:28.882Z,18.30
2017-09-13T14:21:56.942Z,18.50
2017-09-13T14:24:25.011Z,18.40
2017-09-13T14:26:53.088Z,18.40
2017-09-13T14:29:21.254Z,18.40
2017-09-13T14:31:49.349Z,18.50
2017-09-13T14:34:18.402Z,18.60
2017-09-13T14:36:46.491Z,18.50
2017-09-13T14:39:14.647Z,18.60
2017-09-13T14:41:42.745Z,18.60
2017-09-13T14:44:10.854Z,18.40
2017-09-13T14:46:40.616Z,18.30
2017-09-13T14:49:08.694Z,18.30
2017-09-13T14:51:36.783Z,18.30
2017-09-13T14:54:05.714Z,18.30
2017-09-13T14:56:33.772Z,18.20
2017-09-13T14:59:01.844Z,18.20
2017-09-13T15:01:30.680Z,18.20
2017-09-13T15:03:58.755Z,18.10
2017-09-13T15:06:26.827Z,18.20
2017-09-13T15:08:54.910Z,18.20
2017-09-13T15:11:22.984Z,18.30
2017-09-13T15:13:51.047Z,18.40
2017-09-13T15:16:19.154Z,18.40
2017-09-13T15:18:47.213Z,18.40
2017-09-13T15:21:15.289Z,18.50
2017-09-13T15:23:43.336Z,18.50
2017-09-13T15:26:11.404Z,18.50
2017-09-13T15:28:39.551Z,18.50
2017-09-13T15:31:08.346Z,18.10
2017-09-13T15:33:36.443Z,18.00
2017-09-13T15:36:04.517Z,18.10
2017-09-13T15:38:32.587Z,18.00
2017-09-13T15:41:00.666Z,18.00
2017-09-13T15:43:29.603Z,18.00
2017-09-13T15:45:57.656Z,18.00
2017-09-13T15:48:25.740Z,18.00
2017-09-13T15:50:53.827Z,18.00
2017-09-13T15:53:21.915Z,18.00
2017-09-13T15:55:49.985Z,17.80
2017-09-13T15:58:18.055Z,17.80
2017-09-13T16:00:46.161Z,17.80
2017-09-13T16:03:14.364Z,17.90
2017-09-13T16:05:42.786Z,17.90
2017-09-13T16:08:10.847Z,17.80
2017-09-13T16:10:38.896Z,17.60
2017-09-13T16:13:06.960Z,17.60
2017-09-13T16:15:35.079Z,17.50
2017-09-13T16:18:03.230Z,17.50
2017-09-13T16:20:31.340Z,17.50
2017-09-13T16:22:59.439Z,17.60
2017-09-13T16:25:28.267Z,17.50
2017-09-13T16:27:56.335Z,17.50
2017-09-13T16:30:24.379Z,17.50
2017-09-13T16:32:52.479Z,17.60
2017-09-13T16:35:21.363Z,17.60
2017-09-13T16:37:49.774Z,17.50
2017-09-13T16:40:17.834Z,17.40
2017-09-13T16:42:45.911Z,17.40
2017-09-13T16:45:13.986Z,17.40
2017-09-13T16:47:42.048Z,17.40
2017-09-13T16:50:10.131Z,17.40
2017-09-13T16:52:38.204Z,17.40
2017-09-13T16:55:06.372Z,17.40
2017-09-13T16:57:34.435Z,17.40
2017-09-13T17:00:02.497Z,17.30
2017-09-13T17:02:30.563Z,17.10
2017-09-13T17:04:58.627Z,17.00
2017-09-13T17:07:26.720Z,16.70
2017-09-13T17:09:54.815Z,16.60
2017-09-13T17:12:22.891Z,16.30
2017-09-13T17:14:51.716Z,15.70
2017-09-13T17:17:19.865Z,15.70
2017-09-13T17:19:47.916Z,15.60
2017-09-13T17:22:16.786Z,15.60
2017-09-13T17:24:44.836Z,15.50
2017-09-13T17:27:12.910Z,15.50
2017-09-13T17:29:42.349Z,15.50
2017-09-13T17:32:10.416Z,15.50
2017-09-13T17:34:38.721Z,15.50
2017-09-13T17:37:07.555Z,15.40
2017-09-13T17:39:35.620Z,15.30
2017-09-13T17:42:03.717Z,15.30
2017-09-13T17:44:31.814Z,15.30
2017-09-13T17:47:01.982Z,15.20
2017-09-13T17:49:30.020Z,15.10
2017-09-13T17:51:58.149Z,14.80
2017-09-13T17:54:27.009Z,14.50
2017-09-13T17:56:55.073Z,14.50
2017-09-13T17:59:23.131Z,14.60
2017-09-13T18:01:51.223Z,14.60
2017-09-13T18:04:19.273Z,14.70
2017-09-13T18:06:47.331Z,14.70
2017-09-13T18:09:15.423Z,14.60
2017-09-13T18:11:43.517Z,14.70
2017-09-13T18:14:11.597Z,14.80
2017-09-13T18:16:39.659Z,14.70
2017-09-13T18:19:07.724Z,14.80
2017-09-13T18:21:35.807Z,14.90
2017-09-13T18:24:03.876Z,14.90
2017-09-13T18:26:31.985Z,15.00
2017-09-13T18:29:00.864Z,14.90
2017-09-13T18:31:29.704Z,15.00
2017-09-13T18:33:57.789Z,14.90
2017-09-13T18:36:25.873Z,15.00
2017-09-13T18:38:53.954Z,15.10
2017-09-13T18:41:22.800Z,15.20
2017-09-13T18:43:50.871Z,15.20
2017-09-13T18:46:18.944Z,15.30
2017-09-13T18:48:47.014Z,15.30
2017-09-13T18:51:15.083Z,15.30
2017-09-13T18:53:43.191Z,15.30
2017-09-13T18:56:11.255Z,15.30
2017-09-13T18:58:39.323Z,15.30
2017-09-13T19:01:07.464Z,15.20
2017-09-13T19:03:35.568Z,15.20
2017-09-13T19:06:03.646Z,15.10
2017-09-13T19:08:31.715Z,15.10
2017-09-13T19:10:59.774Z,15.10
2017-09-13T19:13:27.856Z,15.10
2017-09-13T19:15:55.906Z,15.20
2017-09-13T19:18:24.002Z,15.20
2017-09-13T19:20:52.109Z,15.10
2017-09-13T19:23:20.929Z,14.90
2017-09-13T19:25:49.805Z,14.80
2017-09-13T19:28:17.902Z,14.70
2017-09-13T19:30:46.331Z,14.70
2017-09-13T19:33:14.488Z,14.70
2017-09-13T19:35:42.597Z,14.70
2017-09-13T19:38:10.657Z,14.70
2017-09-13T19:40:38.743Z,14.70
2017-09-13T19:43:06.864Z,14.70
2017-09-13T19:45:34.923Z,14.70
2017-09-13T19:48:03.820Z,14.70
2017-09-13T19:50:31.874Z,14.70
2017-09-13T19:52:59.939Z,14.70
2017-09-13T19:55:28.018Z,14.70
2017-09-13T19:57:56.098Z,14.60
2017-09-13T20:00:24.159Z,14.60
2017-09-13T20:02:52.231Z,14.60
2017-09-13T20:05:20.311Z,14.60
2017-09-13T20:07:48.411Z,14.60
2017-09-13T20:10:17.243Z,14.60
2017-09-13T20:12:45.310Z,14.50
2017-09-13T20:15:13.429Z,14.60
2017-09-13T20:17:41.482Z,14.60
2017-09-13T20:20:09.540Z,14.70
2017-09-13T20:22:37.608Z,14.50
2017-09-13T20:25:05.675Z,14.50
2017-09-13T20:27:33.769Z,14.60
2017-09-13T20:30:01.889Z,14.60
2017-09-13T20:32:30.715Z,14.70
2017-09-13T20:34:58.775Z,14.60
2017-09-13T20:37:26.849Z,14.70
2017-09-13T20:39:54.900Z,14.60
2017-09-13T20:42:23.000Z,14.50
2017-09-13T20:44:51.071Z,14.50
2017-09-13T20:47:20.064Z,14.60
2017-09-13T20:49:48.142Z,14.60
2017-09-13T20:52:16.200Z,14.50
2017-09-13T20:54:44.275Z,14.60
2017-09-13T20:57:12.348Z,14.70
2017-09-13T20:59:41.175Z,14.90
2017-09-13T21:02:09.220Z,14.80
2017-09-13T21:04:37.314Z,14.80
2017-09-13T21:07:05.372Z,14.80
2017-09-13T21:09:33.687Z,14.90
2017-09-13T21:12:02.526Z,15.00
2017-09-13T21:14:30.632Z,14.90
2017-09-13T21:16:58.703Z,15.00
2017-09-13T21:19:26.758Z,15.00
2017-09-13T21:21:54.862Z,15.00
2017-09-13T21:24:24.243Z,15.00
2017-09-13T21:26:52.294Z,14.90
2017-09-13T21:29:20.375Z,15.00
2017-09-13T21:31:48.444Z,15.00
2017-09-13T21:34:16.532Z,15.00
2017-09-13T21:36:44.598Z,15.00
2017-09-13T21:39:12.722Z,15.00
2017-09-13T21:41:40.767Z,15.10
2017-09-13T21:44:09.605Z,15.10
2017-09-13T21:46:37.663Z,15.10
2017-09-13T21:49:05.819Z,15.10
2017-09-13T21:51:34.667Z,15.10
2017-09-13T21:54:02.727Z,15.00
2017-09-13T21:56:30.806Z,15.10
2017-09-13T21:58:58.876Z,15.20
2017-09-13T22:01:27.020Z,15.30
2017-09-13T22:03:55.802Z,15.20
2017-09-13T22:06:23.923Z,15.20
2017-09-13T22:08:51.967Z,15.20
2017-09-13T22:11:20.035Z,15.30
2017-09-13T22:13:48.122Z,15.30
2017-09-13T22:16:16.221Z,15.30
2017-09-13T22:18:44.283Z,15.10
2017-09-13T22:21:12.352Z,15.10
2017-09-13T22:23:40.419Z,15.10
2017-09-13T22:26:08.508Z,15.10
2017-09-13T22:28:36.534Z,15.20
2017-09-13T22:31:04.686Z,15.10
2017-09-13T22:33:33.480Z,15.00
2017-09-13T22:36:01.543Z,15.00
2017-09-13T22:38:29.716Z,15.00
2017-09-13T22:40:57.745Z,15.00
2017-09-13T22:43:26.590Z,14.80
2017-09-13T22:45:55.694Z,14.80
2017-09-13T22:48:23.762Z,14.70
2017-09-13T22:50:51.831Z,14.60
2017-09-13T22:53:19.906Z,14.50
2017-09-13T22:55:47.979Z,14.40
2017-09-13T22:58:17.543Z,14.20
2017-09-13T23:00:45.629Z,14.20
2017-09-13T23:03:13.725Z,14.30
2017-09-13T23:05:41.799Z,14.30
2017-09-13T23:08:10.632Z,13.70
2017-09-13T23:10:38.702Z,13.60
2017-09-13T23:13:06.899Z,13.50
2017-09-13T23:15:35.940Z,13.40
2017-09-13T23:18:04.009Z,13.30
2017-09-13T23:20:32.844Z,13.20
2017-09-13T23:23:00.902Z,13.10
2017-09-13T23:25:28.974Z,13.20
2017-09-13T23:27:57.047Z,13.20
2017-09-13T23:30:25.099Z,13.30
2017-09-13T23:32:53.935Z,13.50
2017-09-13T23:35:22.003Z,13.40
2017-09-13T23:37:50.074Z,13.50
2017-09-13T23:40:18.126Z,13.60
2017-09-13T23:42:46.215Z,13.70
2017-09-13T23:45:14.264Z,13.80
2017-09-13T23:47:42.329Z,13.90
2017-09-13T23:50:11.151Z,13.80
2017-09-13T23:52:39.448Z,13.80
2017-09-13T23:55:08.263Z,13.70
2017-09-13T23:57:36.322Z,13.70
